Time;durP1;ratioP1;P1;durP2;ratioP2;P2;SDS_P1;SDS_P2;PMS_P1;PMS_P2;Temp;Humidity;BMP_temperature;BMP_pressure;BME280_temperature;BME280_humidity;BME280_pressure;Samples;Min_cycle;Max_cycle;Signal;HPM_P1;HPM_P2
2022/07/26 00:01:23;;;;;;;19.42;16.98;;;;;;;19.43;75.82;97350.38;10370259;28;20057;-55
2022/07/26 00:06:24;;;;;;;23.73;18.00;;;;;;;19.42;75.85;97355.72;10370359;28;20052;-55
2022/07/26 00:11:24;;;;;;;19.92;16.95;;;;;;;19.39;76.20;97354.09;10373494;28;20069;-55
2022/07/26 00:16:23;;;;;;;22.23;17.80;;;;;;;19.40;76.74;97355.78;10378207;28;20572;-55
2022/07/26 00:21:22;;;;;;;21.08;17.55;;;;;;;19.33;76.77;97349.06;10377808;28;20464;-55
2022/07/26 00:26:21;;;;;;;20.15;17.60;;;;;;;19.35;77.19;97347.25;10378038;28;20521;-55
2022/07/26 00:31:20;;;;;;;20.42;17.65;;;;;;;19.32;77.39;97342.13;10377572;28;20020;-55
2022/07/26 00:36:19;;;;;;;19.90;16.25;;;;;;;19.33;77.65;97332.44;10377142;28;20060;-55
2022/07/26 00:41:18;;;;;;;23.27;18.27;;;;;;;19.30;78.02;97332.56;10376848;28;20064;-55
2022/07/26 00:46:17;;;;;;;20.00;17.58;;;;;;;19.30;77.94;97333.44;10376889;28;20031;-55
2022/07/26 00:51:16;;;;;;;22.25;17.15;;;;;;;19.27;78.17;97324.81;10376459;28;20023;-55
2022/07/26 00:56:16;;;;;;;23.23;16.90;;;;;;;19.16;78.99;97325.28;10375771;28;20049;-55
2022/07/26 01:01:15;;;;;;;19.92;16.92;;;;;;;19.11;78.72;97321.97;10376050;28;20067;-55
2022/07/26 01:06:14;;;;;;;28.73;23.90;;;;;;;19.07;78.84;97330.94;10376412;28;20036;-58
2022/07/26 01:11:13;;;;;;;32.60;27.23;;;;;;;19.00;78.58;97327.69;10376416;28;20065;-56
2022/07/26 01:16:13;;;;;;;33.58;26.83;;;;;;;18.80;78.70;97323.25;10376362;28;20463;-56
2022/07/26 01:21:11;;;;;;;30.67;25.80;;;;;;;18.59;78.96;97331.03;10375024;28;20064;-55
2022/07/26 01:26:11;;;;;;;27.35;22.42;;;;;;;18.53;78.98;97336.56;10376080;28;20048;-55
2022/07/26 01:31:10;;;;;;;24.50;19.08;;;;;;;18.40;79.71;97330.06;10375191;28;20079;-55
2022/07/26 01:36:09;;;;;;;22.98;19.90;;;;;;;18.32;80.31;97326.91;10375358;28;20039;-55
2022/07/26 01:41:08;;;;;;;23.70;19.42;;;;;;;18.23;80.58;97316.75;10373287;28;20077;-55
2022/07/26 01:46:08;;;;;;;25.40;21.05;;;;;;;18.03;81.17;97299.13;10375523;28;20072;-55
2022/07/26 01:51:07;;;;;;;25.95;20.48;;;;;;;18.15;81.75;97309.13;10374597;28;20492;-55
2022/07/26 01:56:06;;;;;;;24.80;21.42;;;;;;;18.13;81.71;97316.25;10373740;28;20507;-55
2022/07/26 02:01:06;;;;;;;23.50;19.83;;;;;;;18.15;81.96;97311.75;10373146;28;20500;-55
2022/07/26 02:06:05;;;;;;;22.33;19.75;;;;;;;18.13;82.22;97326.75;10374576;28;20068;-55
2022/07/26 02:11:04;;;;;;;23.60;19.33;;;;;;;18.07;82.32;97325.19;10373024;28;20060;-55
2022/07/26 02:16:06;;;;;;;25.33;20.08;;;;;;;18.00;82.99;97325.50;10372827;28;20071;-55
2022/07/26 02:21:06;;;;;;;22.67;18.75;;;;;;;18.00;82.89;97331.59;10373402;28;20076;-55
2022/07/26 02:26:05;;;;;;;25.05;21.17;;;;;;;18.01;82.75;97335.06;10373149;28;20119;-55
2022/07/26 02:31:04;;;;;;;24.42;21.48;;;;;;;17.93;83.17;97324.88;10372309;28;20060;-57
2022/07/26 02:36:03;;;;;;;25.33;19.55;;;;;;;17.89;83.33;97325.88;10371952;28;20037;-55
2022/07/26 02:41:02;;;;;;;25.77;20.13;;;;;;;17.84;83.35;97315.56;10371705;28;20132;-55
2022/07/26 02:46:01;;;;;;;26.65;20.92;;;;;;;17.82;83.23;97322.63;10371604;28;20039;-55
2022/07/26 02:51:00;;;;;;;;;;;;;;;17.75;83.81;97322.00;10373228;28;20064;-55
2022/07/26 02:55:59;;;;;;;23.17;19.03;;;;;;;17.72;84.37;97332.56;10371198;28;19911;-55
2022/07/26 03:00:58;;;;;;;27.33;20.75;;;;;;;17.58;84.31;97329.59;10370774;28;20041;-55
2022/07/26 03:05:57;;;;;;;;;;;;;;;17.53;84.18;97331.53;10372293;28;20024;-55
2022/07/26 03:10:55;;;;;;;28.33;22.13;;;;;;;17.50;84.42;97329.03;10371223;28;20286;-55
2022/07/26 03:15:54;;;;;;;29.02;21.85;;;;;;;17.48;84.72;97338.72;10371174;28;20032;-55
2022/07/26 03:20:54;;;;;;;;;;;;;;;17.51;84.67;97335.97;10371750;28;20115;-55
2022/07/26 03:25:53;;;;;;;31.20;21.60;;;;;;;17.54;84.94;97343.72;10371503;28;19956;-55
2022/07/26 03:30:51;;;;;;;;;;;;;;;17.62;84.91;97351.34;10371185;28;20043;-55
2022/07/26 03:35:50;;;;;;;26.87;22.47;;;;;;;17.67;84.84;97339.75;10375239;28;19948;-55
2022/07/26 03:40:50;;;;;;;;;;;;;;;17.73;85.04;97349.16;10375149;28;20040;-55
2022/07/26 03:45:49;;;;;;;29.95;21.77;;;;;;;17.66;85.53;97348.56;10378537;28;20227;-55
2022/07/26 03:50:48;;;;;;;27.23;21.73;;;;;;;17.51;86.22;97341.22;10383440;28;20064;-55
2022/07/26 04:01:04;;;;;;;28.73;22.77;;;;;;;17.49;86.48;97345.66;10340827;28;20061;-55
2022/07/26 04:06:04;;;;;;;27.23;22.67;;;;;;;17.44;86.55;97337.09;10339633;28;20018;-55
2022/07/26 04:11:03;;;;;;;29.88;23.45;;;;;;;17.30;86.79;97324.47;10340316;28;20061;-55
2022/07/26 04:16:03;;;;;;;31.77;23.95;;;;;;;17.45;86.69;97328.31;10338393;28;20033;-55
2022/07/26 04:21:02;;;;;;;31.85;24.98;;;;;;;17.58;86.82;97323.50;10339941;28;20069;-55
2022/07/26 04:26:01;;;;;;;31.35;25.48;;;;;;;17.71;86.47;97325.63;10338260;28;20539;-55
2022/07/26 04:31:00;;;;;;;28.08;23.20;;;;;;;17.89;86.00;97333.75;10338639;28;20010;-55
2022/07/26 04:36:00;;;;;;;30.77;23.63;;;;;;;18.01;85.62;97312.31;10343006;28;20425;-55
2022/07/26 04:40:59;;;;;;;31.02;23.77;;;;;;;18.11;85.13;97321.53;10377128;28;20081;-55
2022/07/26 04:45:59;;;;;;;29.23;23.05;;;;;;;18.21;84.68;97318.56;10370752;28;20029;-55
2022/07/26 04:50:59;;;;;;;31.20;25.67;;;;;;;18.31;84.49;97319.91;10374687;28;20065;-56
2022/07/26 04:55:58;;;;;;;31.10;25.92;;;;;;;18.42;83.91;97320.34;10372996;28;20071;-55
2022/07/26 05:00:58;;;;;;;30.20;25.00;;;;;;;18.49;84.03;97318.34;10370296;28;20080;-55
2022/07/26 05:05:57;;;;;;;30.08;26.30;;;;;;;18.69;83.57;97314.94;10374385;28;20068;-55
2022/07/26 05:10:56;;;;;;;31.63;24.63;;;;;;;18.92;82.97;97316.63;10368225;28;20035;-55
2022/07/26 05:15:55;;;;;;;32.60;25.52;;;;;;;19.19;82.11;97307.56;10375633;28;20464;-55
2022/07/26 05:20:54;;;;;;;27.63;22.88;;;;;;;19.41;81.98;97299.59;10374405;28;20017;-55
2022/07/26 05:25:54;;;;;;;32.42;26.05;;;;;;;19.68;81.16;97295.88;10375143;28;20115;-55
2022/07/26 05:30:53;;;;;;;32.80;28.00;;;;;;;19.93;80.61;97285.03;10372786;28;20065;-55
2022/07/26 05:35:52;;;;;;;29.88;25.00;;;;;;;20.21;79.50;97274.94;10372603;28;20063;-55
2022/07/26 05:40:51;;;;;;;26.67;23.40;;;;;;;20.57;78.76;97282.03;10373277;28;20040;-55
2022/07/26 05:45:50;;;;;;;26.70;21.77;;;;;;;20.92;78.19;97288.19;10372418;28;20087;-55
2022/07/26 05:50:49;;;;;;;24.02;17.50;;;;;;;21.33;76.61;97271.22;10372775;28;20067;-55
2022/07/26 05:55:48;;;;;;;24.20;20.58;;;;;;;21.82;74.77;97273.88;10373323;28;20065;-56
2022/07/26 06:00:47;;;;;;;25.48;18.90;;;;;;;22.15;72.39;97267.72;10373244;28;20031;-56
2022/07/26 06:05:46;;;;;;;23.88;17.70;;;;;;;22.49;72.43;97266.69;10373751;28;20029;-56
2022/07/26 06:10:46;;;;;;;19.13;16.92;;;;;;;22.84;69.98;97265.63;10370828;28;20075;-56
2022/07/26 06:15:45;;;;;;;21.30;18.33;;;;;;;23.14;68.81;97265.59;10369402;28;20138;-56
2022/07/26 06:20:46;;;;;;;26.63;18.10;;;;;;;23.48;68.19;97259.16;10369939;28;20175;-55
2022/07/26 06:25:45;;;;;;;19.95;16.08;;;;;;;23.82;66.25;97243.84;10370549;28;20096;-56
2022/07/26 06:30:44;;;;;;;20.30;15.48;;;;;;;24.19;65.20;97234.44;10370624;28;20025;-56
2022/07/26 06:35:43;;;;;;;16.17;14.48;;;;;;;24.63;62.93;97243.91;10372846;28;20814;-56
2022/07/26 06:40:42;;;;;;;15.60;13.32;;;;;;;25.03;61.09;97235.13;10373844;28;20527;-56
2022/07/26 06:45:41;;;;;;;16.70;12.80;;;;;;;25.39;59.72;97231.75;10375262;28;20047;-56
2022/07/26 06:50:40;;;;;;;15.20;11.40;;;;;;;25.76;56.83;97213.25;10373190;28;20025;-56
2022/07/26 06:55:39;;;;;;;14.88;11.80;;;;;;;26.23;53.70;97222.31;10374030;28;20032;-56
2022/07/26 07:00:38;;;;;;;14.73;12.40;;;;;;;26.60;52.81;97218.72;10373258;28;20072;-56
2022/07/26 07:05:37;;;;;;;18.05;11.90;;;;;;;26.94;51.20;97217.06;10373197;28;20031;-56
2022/07/26 07:10:36;;;;;;;15.07;11.57;;;;;;;27.26;50.58;97221.72;10373547;28;20041;-56
2022/07/26 07:15:35;;;;;;;17.67;12.52;;;;;;;27.54;49.01;97209.78;10373750;28;20068;-56
2022/07/26 07:20:34;;;;;;;16.75;12.10;;;;;;;27.72;47.51;97211.00;10372943;28;20023;-56
2022/07/26 07:25:33;;;;;;;13.90;12.40;;;;;;;27.91;47.20;97217.53;10372947;28;20068;-56
2022/07/26 07:30:33;;;;;;;15.38;12.63;;;;;;;28.09;45.74;97209.94;10332498;28;20025;-56
2022/07/26 07:35:32;;;;;;;14.88;13.15;;;;;;;28.26;45.58;97214.72;10332882;28;20076;-56
2022/07/26 07:40:31;;;;;;;16.83;12.48;;;;;;;28.45;45.04;97211.38;10351658;28;20043;-56
2022/07/26 07:45:30;;;;;;;15.70;12.63;;;;;;;28.66;44.46;97217.63;10373246;28;20076;-56
2022/07/26 07:50:28;;;;;;;12.98;11.60;;;;;;;28.82;43.34;97211.03;10373050;28;20032;-57
2022/07/26 07:55:27;;;;;;;16.85;12.85;;;;;;;28.99;43.47;97213.16;10372891;28;20025;-57
2022/07/26 08:00:26;;;;;;;14.90;12.75;;;;;;;29.16;42.55;97210.84;10339110;28;20042;-57
2022/07/26 08:05:25;;;;;;;15.90;11.80;;;;;;;29.18;41.89;97188.38;10331964;28;20076;-57
2022/07/26 08:10:25;;;;;;;15.52;12.57;;;;;;;29.43;41.34;97200.47;10332349;28;20068;-57
2022/07/26 08:15:25;;;;;;;14.10;12.70;;;;;;;29.66;41.72;97202.97;10331828;28;20069;-57
2022/07/26 08:20:24;;;;;;;13.60;12.13;;;;;;;29.91;40.59;97196.34;10331395;28;20077;-57
2022/07/26 08:25:23;;;;;;;13.52;11.98;;;;;;;30.13;39.19;97190.75;10331428;28;20065;-57
2022/07/26 08:30:22;;;;;;;12.85;11.45;;;;;;;30.32;38.53;97189.94;10371917;28;20068;-57
2022/07/26 08:35:21;;;;;;;12.45;11.15;;;;;;;30.52;37.40;97193.53;10380016;28;20037;-57
2022/07/26 08:40:20;;;;;;;13.73;11.23;;;;;;;30.76;36.82;97181.53;10377640;28;20536;-57
2022/07/26 08:45:22;;;;;;;12.63;10.73;;;;;;;30.81;35.46;97176.59;10374502;28;20056;-57
2022/07/26 08:50:21;;;;;;;12.95;11.35;;;;;;;30.92;35.50;97175.59;10373006;28;20091;-57
2022/07/26 08:55:20;;;;;;;13.02;10.50;;;;;;;31.03;34.04;97175.47;10373059;28;20064;-57
2022/07/26 09:00:21;;;;;;;12.27;11.07;;;;;;;30.98;33.92;97174.19;10372593;28;20052;-57
2022/07/26 09:05:32;;;;;;;14.35;11.10;;;;;;;31.09;34.04;97169.53;10374858;28;20099;-57
2022/07/26 09:10:33;;;;;;;15.95;11.55;;;;;;;31.30;33.63;97171.16;10376723;28;20547;-57
2022/07/26 09:15:32;;;;;;;12.05;10.85;;;;;;;31.50;33.75;97169.25;10377704;28;20079;-57
2022/07/26 09:20:32;;;;;;;12.20;10.77;;;;;;;31.55;33.16;97165.19;10377251;28;20021;-57
2022/07/26 09:25:36;;;;;;;12.35;11.07;;;;;;;31.66;32.34;97164.13;10377520;28;20084;-57
2022/07/26 09:30:35;;;;;;;11.73;10.63;;;;;;;31.72;32.69;97163.53;10377326;28;20056;-57
2022/07/26 09:35:38;;;;;;;11.77;10.60;;;;;;;31.86;31.82;97161.38;10376416;28;20533;-57
2022/07/26 09:40:37;;;;;;;13.00;10.88;;;;;;;31.90;31.72;97143.97;10376784;28;20084;-57
2022/07/26 09:45:36;;;;;;;14.70;11.43;;;;;;;31.93;30.29;97160.59;10376635;28;20077;-57
2022/07/26 09:50:36;;;;;;;11.70;10.38;;;;;;;31.68;29.73;97145.22;10377053;28;20025;-57
2022/07/26 09:55:55;;;;;;;12.15;10.85;;;;;;;31.54;30.31;97160.78;10376893;28;20076;-57
2022/07/26 10:00:54;;;;;;;11.07;9.98;;;;;;;31.18;29.59;97155.25;10376137;28;20077;-57
2022/07/26 10:05:54;;;;;;;12.57;11.27;;;;;;;31.10;30.54;97146.25;10373261;28;20524;-57
2022/07/26 10:11:07;;;;;;;11.70;10.60;;;;;;;31.10;31.80;97144.44;10374704;28;20072;-57
2022/07/26 10:16:30;;;;;;;13.15;11.85;;;;;;;31.00;32.15;97146.28;10374615;28;20068;-57
2022/07/26 10:21:30;;;;;;;12.68;11.05;;;;;;;31.14;33.07;97136.94;10372925;28;20073;-57
2022/07/26 10:26:35;;;;;;;12.52;11.23;;;;;;;31.42;32.04;97135.13;10375258;28;20081;-57
2022/07/26 10:31:34;;;;;;;14.95;11.95;;;;;;;31.56;31.32;97126.63;10373933;28;20101;-57
2022/07/26 10:36:38;;;;;;;12.15;10.80;;;;;;;31.61;30.84;97123.50;10375023;28;20171;-57
2022/07/26 10:41:47;;;;;;;12.13;10.93;;;;;;;31.73;31.28;97114.28;10374743;28;20080;-57
2022/07/26 10:47:02;;;;;;;12.27;11.07;;;;;;;31.61;29.80;97096.69;10374807;28;20076;-57
2022/07/26 10:52:14;;;;;;;11.70;10.60;;;;;;;31.79;30.17;97096.72;10373821;28;20094;-57
2022/07/26 10:57:13;;;;;;;12.73;11.23;;;;;;;31.94;30.06;97097.91;10368168;28;20687;-57
2022/07/26 11:02:20;;;;;;;12.68;11.38;;;;;;;32.14;29.79;97090.56;10339862;28;20025;-57
2022/07/26 11:07:18;;;;;;;12.48;11.18;;;;;;;32.21;28.91;97078.22;10369146;28;20083;-57
2022/07/26 11:12:18;;;;;;;12.00;10.73;;;;;;;32.34;28.78;97074.28;10373294;28;20029;-57
2022/07/26 11:17:29;;;;;;;12.80;10.45;;;;;;;32.46;29.44;97065.03;10372528;28;20157;-57
2022/07/26 11:22:33;;;;;;;12.88;11.40;;;;;;;32.47;28.90;97053.25;10372452;28;20062;-57
2022/07/26 11:27:32;;;;;;;12.70;11.43;;;;;;;32.59;28.34;97043.13;10371337;28;20072;-57
2022/07/26 11:32:31;;;;;;;12.07;10.95;;;;;;;32.73;28.13;97042.56;10373634;28;20021;-57
2022/07/26 11:37:30;;;;;;;11.80;10.60;;;;;;;32.99;28.02;97036.31;10373467;28;20040;-57
2022/07/26 11:42:29;;;;;;;12.13;10.43;;;;;;;33.21;27.83;97027.75;10373715;28;20080;-57
2022/07/26 11:47:29;;;;;;;16.67;14.18;;;;;;;33.23;26.80;97014.13;10374245;28;20703;-57
2022/07/26 11:52:32;;;;;;;11.68;10.57;;;;;;;33.42;26.47;97013.88;10372631;28;20713;-57
2022/07/26 11:57:31;;;;;;;11.98;10.77;;;;;;;33.59;26.59;97014.75;10370022;28;20048;-57
2022/07/26 12:02:30;;;;;;;11.55;10.45;;;;;;;33.61;26.67;97017.31;10369819;28;20053;-57
2022/07/26 12:07:30;;;;;;;11.52;10.23;;;;;;;33.77;26.62;97016.47;10374985;28;20025;-57
2022/07/26 12:12:32;;;;;;;10.88;9.73;;;;;;;34.16;26.76;97015.88;10378057;28;20064;-57
2022/07/26 12:17:32;;;;;;;11.10;10.00;;;;;;;34.45;25.48;97002.75;10378165;28;20068;-57
2022/07/26 12:22:30;;;;;;;11.50;10.32;;;;;;;34.81;25.14;97002.34;10378336;28;20472;-57
2022/07/26 12:27:33;;;;;;;11.15;10.05;;;;;;;35.12;24.68;97001.59;10377716;28;20473;-57
2022/07/26 12:32:38;;;;;;;11.68;9.85;;;;;;;35.21;24.18;96981.69;10380175;28;20079;-57
2022/07/26 12:37:50;;;;;;;12.48;10.25;;;;;;;35.26;24.25;96984.69;10378526;28;20084;-57
2022/07/26 12:42:49;;;;;;;11.05;10.05;;;;;;;35.41;24.23;96978.53;10376168;28;20087;-57
2022/07/26 12:47:49;;;;;;;10.95;9.85;;;;;;;35.66;24.32;96984.66;10376869;28;20037;-57
2022/07/26 12:52:49;;;;;;;10.00;8.65;;;;;;;35.94;24.08;96984.97;10376528;28;20068;-57
2022/07/26 12:57:50;;;;;;;10.75;9.75;;;;;;;36.07;22.88;96985.25;10374183;28;20061;-57
2022/07/26 13:02:53;;;;;;;9.55;8.55;;;;;;;35.96;22.14;96972.97;10368980;28;20080;-57
2022/07/26 13:07:53;;;;;;;9.80;8.80;;;;;;;36.09;21.90;96975.09;10372449;28;20065;-57
2022/07/26 13:12:52;;;;;;;9.30;8.30;;;;;;;36.23;21.81;96967.19;10376169;28;20057;-58
2022/07/26 13:17:51;;;;;;;12.73;10.23;;;;;;;36.20;21.32;96968.41;10375265;28;20027;-57
2022/07/26 13:22:50;;;;;;;9.65;8.75;;;;;;;36.18;23.18;96965.91;10375755;28;20099;-58
2022/07/26 13:27:49;;;;;;;10.55;8.65;;;;;;;36.22;21.32;96965.53;10375868;28;20480;-57
2022/07/26 13:32:47;;;;;;;9.95;9.05;;;;;;;36.17;21.13;96963.38;10373472;28;20494;-56
2022/07/26 13:37:46;;;;;;;10.40;8.60;;;;;;;36.44;22.39;96959.25;10375190;28;20109;-57
2022/07/26 13:42:48;;;;;;;9.88;8.93;;;;;;;36.53;20.96;96952.78;10373928;28;20133;-57
2022/07/26 13:47:47;;;;;;;10.70;9.38;;;;;;;36.45;20.56;96949.28;10374389;28;20080;-55
2022/07/26 13:52:46;;;;;;;10.55;9.52;;;;;;;36.36;20.77;96962.03;10374394;28;20032;-57
2022/07/26 13:57:45;;;;;;;9.70;8.70;;;;;;;36.22;21.11;96957.44;10368967;28;20594;-57
2022/07/26 14:02:44;;;;;;;10.15;9.13;;;;;;;36.17;20.58;96957.97;10372602;28;20487;-55
2022/07/26 14:07:43;;;;;;;9.75;8.85;;;;;;;35.99;20.52;96955.56;10372638;28;20072;-56
2022/07/26 14:12:42;;;;;;;10.63;9.60;;;;;;;35.90;20.59;96948.53;10372815;28;20095;-56
2022/07/26 14:17:41;;;;;;;10.35;9.18;;;;;;;36.05;20.95;96954.84;10372239;28;20040;-56
2022/07/26 14:22:40;;;;;;;10.35;8.77;;;;;;;36.15;20.59;96943.81;10372297;28;20555;-56
2022/07/26 14:27:39;;;;;;;10.50;8.70;;;;;;;35.80;20.90;96929.91;10372080;28;20047;-56
2022/07/26 14:32:38;;;;;;;9.55;8.52;;;;;;;35.83;20.59;96940.34;10370364;28;20031;-56
2022/07/26 14:37:37;;;;;;;10.32;9.43;;;;;;;35.69;21.06;96933.00;10371688;28;20028;-56
2022/07/26 14:42:36;;;;;;;10.50;8.70;;;;;;;35.52;20.74;96926.88;10371367;28;20519;-56
2022/07/26 14:47:35;;;;;;;10.57;9.55;;;;;;;35.52;21.26;96932.28;10371837;28;20571;-56
2022/07/26 14:52:42;;;;;;;10.35;9.25;;;;;;;35.46;21.17;96925.75;10371466;28;20072;-56
2022/07/26 14:57:42;;;;;;;9.82;8.93;;;;;;;35.24;21.16;96924.69;10369833;28;20068;-56
2022/07/26 15:02:46;;;;;;;11.30;9.32;;;;;;;35.26;21.26;96916.41;10373644;28;20063;-57
2022/07/26 15:07:45;;;;;;;9.57;8.68;;;;;;;35.16;20.97;96922.03;10372575;28;20488;-57
2022/07/26 15:12:44;;;;;;;10.30;9.25;;;;;;;35.04;21.47;96916.19;10371869;28;20067;-57
2022/07/26 15:17:43;;;;;;;10.70;9.63;;;;;;;35.02;21.59;96920.06;10372724;28;20021;-57
2022/07/26 15:22:42;;;;;;;11.20;10.10;;;;;;;35.08;22.85;96911.25;10372295;28;20100;-57
2022/07/26 15:27:41;;;;;;;10.93;9.70;;;;;;;34.57;22.95;96916.19;10371473;28;20072;-57
2022/07/26 15:32:41;;;;;;;12.98;10.10;;;;;;;34.45;22.63;96911.16;10374149;28;20075;-57
2022/07/26 15:37:42;;;;;;;11.15;9.63;;;;;;;34.39;23.64;96911.84;10376990;28;20045;-57
2022/07/26 15:42:43;;;;;;;11.60;9.65;;;;;;;34.21;23.16;96913.88;10380871;28;20091;-57
2022/07/26 15:47:42;;;;;;;10.80;9.77;;;;;;;34.09;23.56;96913.38;10382422;28;20087;-57
2022/07/26 15:52:46;;;;;;;14.25;10.93;;;;;;;34.09;23.84;96903.44;10375072;28;20072;-57
2022/07/26 15:57:45;;;;;;;11.63;10.52;;;;;;;34.09;23.86;96914.19;10379623;28;20060;-57
2022/07/26 16:02:44;;;;;;;11.40;10.32;;;;;;;34.07;23.41;96905.47;10379093;28;20076;-57
2022/07/26 16:07:44;;;;;;;11.50;10.38;;;;;;;34.03;23.95;96928.38;10379840;28;20068;-57
2022/07/26 16:12:43;;;;;;;12.25;11.05;;;;;;;33.88;24.71;96916.56;10382553;28;20681;-57
2022/07/26 16:17:42;;;;;;;11.73;10.50;;;;;;;34.04;24.52;96919.25;10382711;28;20508;-57
2022/07/26 16:22:41;;;;;;;11.65;10.05;;;;;;;33.81;25.04;96927.16;10380662;28;20045;-57
2022/07/26 16:27:42;;;;;;;11.90;10.70;;;;;;;33.90;25.91;96925.34;10382789;28;20111;-57
2022/07/26 16:32:41;;;;;;;11.30;10.20;;;;;;;33.79;25.36;96933.72;10381137;28;20068;-57
2022/07/26 16:37:41;;;;;;;13.45;10.98;;;;;;;33.71;25.75;96936.44;10375750;28;20076;-57
2022/07/26 16:42:40;;;;;;;11.82;10.63;;;;;;;33.47;26.36;96930.81;10375150;28;20084;-57
2022/07/26 16:47:39;;;;;;;13.07;10.32;;;;;;;33.39;26.01;96940.72;10377161;28;20032;-57
2022/07/26 16:52:38;;;;;;;15.38;11.02;;;;;;;33.31;26.64;96943.41;10374203;28;20021;-57
2022/07/26 16:57:37;;;;;;;12.13;10.40;;;;;;;33.14;26.00;96939.81;10375351;28;20020;-57
2022/07/26 17:02:37;;;;;;;12.98;11.32;;;;;;;32.99;26.60;96947.63;10336058;28;20848;-57
2022/07/26 17:07:36;;;;;;;14.90;10.50;;;;;;;32.77;26.36;96941.84;10334426;28;20071;-57
2022/07/26 17:12:36;;;;;;;15.35;11.93;;;;;;;32.63;27.59;96955.88;10334732;28;20576;-56
2022/07/26 17:17:35;;;;;;;15.27;12.27;;;;;;;32.53;28.74;96955.94;10334735;28;20069;-56
2022/07/26 17:22:34;;;;;;;15.15;11.98;;;;;;;32.34;30.22;96954.34;10332746;28;20084;-56
2022/07/26 17:27:34;;;;;;;14.60;11.35;;;;;;;32.01;31.09;96966.63;10332132;28;20025;-56
2022/07/26 17:32:33;;;;;;;15.60;11.98;;;;;;;31.68;31.66;96962.81;10332100;28;20072;-56
2022/07/26 17:37:35;;;;;;;12.75;11.45;;;;;;;31.31;32.11;96961.94;10332668;28;20076;-56
2022/07/26 17:42:35;;;;;;;14.25;11.75;;;;;;;30.94;32.38;96975.34;10332808;28;20402;-56
2022/07/26 17:47:34;;;;;;;14.48;12.27;;;;;;;30.57;33.32;96978.03;10335786;28;20376;-56
2022/07/26 17:52:33;;;;;;;13.55;12.15;;;;;;;30.20;33.77;96982.31;10369198;28;20297;-57
2022/07/26 17:57:33;;;;;;;13.48;12.07;;;;;;;29.79;34.36;96984.28;10373995;28;20068;-57
2022/07/26 18:02:32;;;;;;;17.15;12.00;;;;;;;29.45;34.97;96987.34;10334775;28;20088;-56
2022/07/26 18:07:31;;;;;;;17.20;12.45;;;;;;;29.17;35.34;96993.44;10330524;28;20084;-56
2022/07/26 18:12:30;;;;;;;14.02;12.43;;;;;;;28.88;35.78;96991.53;10331659;28;20041;-56
2022/07/26 18:17:28;;;;;;;15.23;11.90;;;;;;;28.61;36.10;97011.59;10338829;28;20043;-56
2022/07/26 18:22:27;;;;;;;13.85;12.38;;;;;;;28.33;36.89;97014.94;10370926;28;20583;-57
2022/07/26 18:27:27;;;;;;;15.95;13.05;;;;;;;27.97;38.16;97019.72;10372661;28;20115;-57
2022/07/26 18:32:26;;;;;;;15.57;12.43;;;;;;;27.66;38.66;97029.38;10371330;28;20076;-57
2022/07/26 18:37:25;;;;;;;15.05;13.13;;;;;;;27.40;39.31;97027.88;10370273;28;20037;-57
2022/07/26 18:42:24;;;;;;;13.80;12.18;;;;;;;27.19;39.15;97029.59;10370846;28;20045;-57
2022/07/26 18:47:23;;;;;;;14.70;13.13;;;;;;;27.01;39.68;97036.38;10365350;28;20129;-57
2022/07/26 18:52:22;;;;;;;15.93;13.20;;;;;;;26.80;40.09;97039.72;10370154;28;20512;-57
2022/07/26 18:57:21;;;;;;;18.83;13.25;;;;;;;26.65;40.69;97048.91;10370010;28;20546;-57
2022/07/26 19:02:20;;;;;;;19.55;14.35;;;;;;;26.48;41.16;97061.69;10368235;28;20040;-57
2022/07/26 19:07:19;;;;;;;17.08;14.15;;;;;;;26.31;41.65;97064.81;10370847;28;20025;-57
2022/07/26 19:12:18;;;;;;;16.45;13.45;;;;;;;26.16;41.94;97066.78;10370757;28;20009;-57
2022/07/26 19:17:17;;;;;;;18.05;14.00;;;;;;;25.99;42.23;97065.38;10367769;28;20500;-57
2022/07/26 19:22:16;;;;;;;16.75;14.07;;;;;;;25.84;42.58;97064.69;10363659;28;20036;-57
2022/07/26 19:27:16;;;;;;;18.40;14.18;;;;;;;25.72;42.91;97058.50;10367749;28;20076;-57
2022/07/26 19:32:15;;;;;;;18.70;13.85;;;;;;;25.54;43.37;97049.19;10370332;28;20072;-56
2022/07/26 19:37:21;;;;;;;14.75;12.40;;;;;;;25.39;43.22;97051.13;10372394;28;20072;-56
2022/07/26 19:42:20;;;;;;;13.90;12.05;;;;;;;25.23;42.49;97050.56;10374008;28;20531;-56
2022/07/26 19:47:19;;;;;;;15.43;11.63;;;;;;;25.10;42.29;97050.56;10372155;28;20465;-57
2022/07/26 19:52:18;;;;;;;15.93;11.10;;;;;;;25.00;42.10;97045.06;10368086;28;20561;-56
2022/07/26 19:57:18;;;;;;;14.43;12.75;;;;;;;24.92;44.13;97054.50;10371663;28;20098;-55
2022/07/26 20:02:17;;;;;;;14.80;13.00;;;;;;;24.74;45.52;97054.81;10373349;28;20520;-57
2022/07/26 20:07:18;;;;;;;18.15;14.18;;;;;;;24.66;45.82;97062.44;10373606;28;20074;-56
2022/07/26 20:12:18;;;;;;;17.25;15.27;;;;;;;24.56;46.51;97067.53;10372816;28;20087;-56
2022/07/26 20:17:17;;;;;;;17.75;15.13;;;;;;;24.38;46.94;97059.06;10371306;28;20130;-56
2022/07/26 20:22:16;;;;;;;17.10;15.07;;;;;;;24.17;47.64;97061.31;10371769;28;20037;-56
2022/07/26 20:27:15;;;;;;;22.70;16.48;;;;;;;24.06;48.14;97062.03;10373872;28;20040;-56
2022/07/26 20:32:14;;;;;;;20.95;16.45;;;;;;;23.95;48.56;97066.34;10379487;28;20024;-56
2022/07/26 20:37:13;;;;;;;20.10;16.92;;;;;;;23.84;48.92;97064.38;10375995;28;20045;-56
2022/07/26 20:42:12;;;;;;;22.08;18.13;;;;;;;23.75;49.10;97070.31;10375402;28;20041;-56
2022/07/26 20:47:11;;;;;;;24.23;20.40;;;;;;;23.64;49.85;97071.84;10370907;28;20080;-56
2022/07/26 20:52:10;;;;;;;21.17;18.73;;;;;;;23.53;50.65;97076.97;10376364;28;20068;-56
2022/07/26 20:57:09;;;;;;;20.63;16.42;;;;;;;23.35;51.06;97068.41;10375672;28;20065;-56
2022/07/26 21:02:08;;;;;;;18.95;15.57;;;;;;;23.33;51.34;97080.88;10344218;28;20048;-56
2022/07/26 21:07:07;;;;;;;16.83;14.38;;;;;;;23.15;51.01;97074.94;10333946;28;20103;-55
2022/07/26 21:12:07;;;;;;;17.13;15.13;;;;;;;23.06;51.15;97083.44;10352763;28;20060;-55
2022/07/26 21:17:06;;;;;;;17.77;15.15;;;;;;;22.93;51.90;97087.81;10370713;28;20072;-55
2022/07/26 21:22:05;;;;;;;19.65;15.80;;;;;;;22.81;52.31;97092.03;10373473;28;20083;-55
2022/07/26 21:27:05;;;;;;;19.45;16.48;;;;;;;22.68;52.82;97089.28;10375355;28;20403;-55
2022/07/26 21:32:04;;;;;;;18.00;15.88;;;;;;;22.56;53.39;97093.50;10374387;28;20065;-55
2022/07/26 21:37:04;;;;;;;18.35;15.60;;;;;;;22.39;54.02;97093.69;10372950;28;20143;-55
2022/07/26 21:42:03;;;;;;;19.77;17.00;;;;;;;22.33;54.34;97099.31;10373495;28;20088;-55
2022/07/26 21:47:04;;;;;;;18.23;16.33;;;;;;;22.28;54.54;97102.22;10369175;28;20084;-55
2022/07/26 21:52:03;;;;;;;18.65;16.42;;;;;;;22.27;55.08;97094.38;10373768;28;20077;-55
2022/07/26 21:57:02;;;;;;;20.23;16.73;;;;;;;22.18;55.88;97090.50;10372491;28;20084;-55
2022/07/26 22:02:01;;;;;;;20.02;16.42;;;;;;;22.05;57.08;97095.63;10372144;28;20032;-55
2022/07/26 22:07:00;;;;;;;18.67;15.65;;;;;;;21.95;57.04;97097.09;10368295;28;20384;-55
2022/07/26 22:11:59;;;;;;;22.73;16.85;;;;;;;21.92;57.20;97103.41;10370868;28;20526;-55
2022/07/26 22:16:58;;;;;;;24.20;17.15;;;;;;;21.83;57.91;97101.28;10365473;28;20045;-55
2022/07/26 22:21:57;;;;;;;20.67;16.92;;;;;;;21.76;58.01;97095.50;10372358;28;20032;-55
2022/07/26 22:26:56;;;;;;;22.33;18.08;;;;;;;21.68;58.50;97094.22;10372942;28;20033;-55
2022/07/26 22:31:55;;;;;;;23.75;17.00;;;;;;;21.59;59.33;97089.44;10371810;28;20084;-55
2022/07/26 22:36:54;;;;;;;21.30;17.67;;;;;;;21.48;59.46;97087.41;10372739;28;20044;-55
2022/07/26 22:41:53;;;;;;;24.15;17.67;;;;;;;21.41;60.16;97094.81;10371783;28;20128;-55
2022/07/26 22:46:53;;;;;;;20.77;16.08;;;;;;;21.13;61.25;97096.28;10366787;28;20116;-55
2022/07/26 22:51:52;;;;;;;20.08;16.73;;;;;;;21.06;61.11;97092.28;10372067;28;20087;-55